Time;durP1;ratioP1;P1;durP2;ratioP2;P2;SDS_P1;SDS_P2;PMS_P1;PMS_P2;Temp;Humidity;BMP_temperature;BMP_pressure;BME280_temperature;BME280_humidity;BME280_pressure;Samples;Min_cycle;Max_cycle;Signal;HPM_P1;HPM_P2
2022/11/17 00:02:16;;;;;;;6.60;2.53;;;;;;;6.74;100.00;95540.53;5044561;28;20501;-60
2022/11/17 00:04:43;;;;;;;5.53;2.60;;;;;;;6.74;100.00;95539.69;5045026;28;20060;-60
2022/11/17 00:07:10;;;;;;;5.50;2.60;;;;;;;6.52;100.00;95523.91;5040953;28;20146;-60
2022/11/17 00:09:36;;;;;;;6.28;2.55;;;;;;;6.52;100.00;95524.69;5038842;28;20029;-60
2022/11/17 00:14:56;;;;;;;8.77;3.85;;;;;;;6.81;100.00;95534.84;5048238;28;20041;-60
2022/11/17 00:17:23;;;;;;;4.72;3.05;;;;;;;6.86;100.00;95542.91;5041360;28;20606;-60
2022/11/17 00:22:34;;;;;;;8.55;2.88;;;;;;;6.86;100.00;95560.94;5051613;28;20514;-60
2022/11/17 00:25:01;;;;;;;7.43;3.42;;;;;;;6.94;100.00;95548.81;5045927;28;20744;-60
2022/11/17 00:27:27;;;;;;;5.65;3.10;;;;;;;6.94;100.00;95543.44;5044558;28;20123;-60
2022/11/17 00:29:55;;;;;;;8.15;3.08;;;;;;;6.87;100.00;95544.53;5045023;28;20116;-60
2022/11/17 00:35:07;;;;;;;5.20;3.30;;;;;;;6.89;100.00;95536.16;5045679;28;20068;-60
2022/11/17 00:37:36;;;;;;;5.53;3.22;;;;;;;6.77;100.00;95528.41;5045261;28;20088;-61
2022/11/17 00:40:04;;;;;;;7.32;3.05;;;;;;;6.75;100.00;95527.88;5045711;28;20071;-60
2022/11/17 00:42:31;;;;;;;5.95;3.00;;;;;;;6.77;100.00;95539.16;5024907;28;20129;-59
2022/11/17 00:44:57;;;;;;;6.32;2.80;;;;;;;6.80;100.00;95524.38;5030961;28;20192;-60
2022/11/17 00:47:23;;;;;;;5.25;2.97;;;;;;;6.81;100.00;95521.41;5044732;28;20049;-60
2022/11/17 00:49:50;;;;;;;8.35;3.63;;;;;;;6.83;100.00;95518.44;5049683;28;20562;-60
2022/11/17 00:52:16;;;;;;;8.68;3.22;;;;;;;6.82;100.00;95501.50;5047746;28;20072;-60
2022/11/17 00:54:43;;;;;;;5.70;3.28;;;;;;;6.84;100.00;95491.28;5048966;28;20052;-60
2022/11/17 00:57:09;;;;;;;6.03;3.08;;;;;;;6.80;100.00;95479.44;5037407;28;20412;-60
2022/11/17 00:59:36;;;;;;;6.78;2.92;;;;;;;6.88;100.00;95478.88;5048503;28;20508;-60
2022/11/17 01:02:02;;;;;;;7.47;3.30;;;;;;;6.87;100.00;95477.28;5047866;28;20041;-60
2022/11/17 01:04:29;;;;;;;6.32;3.22;;;;;;;6.91;100.00;95469.44;5033079;28;20065;-61
2022/11/17 01:06:55;;;;;;;9.10;3.13;;;;;;;6.84;100.00;95456.31;5036917;28;20132;-61
2022/11/17 01:09:23;;;;;;;6.72;3.38;;;;;;;6.81;100.00;95450.69;5033051;28;20044;-61
2022/11/17 01:11:51;;;;;;;7.18;3.05;;;;;;;6.71;100.00;95454.19;5030950;28;20305;-60
2022/11/17 01:14:23;;;;;;;6.85;3.13;;;;;;;6.62;100.00;95452.06;5046658;28;20045;-60
2022/11/17 01:16:50;;;;;;;7.95;3.38;;;;;;;6.59;100.00;95455.31;5048369;28;20068;-60
2022/11/17 01:19:18;;;;;;;7.55;3.63;;;;;;;6.58;100.00;95444.81;5048976;28;20123;-60
2022/11/17 01:21:45;;;;;;;6.07;3.25;;;;;;;6.60;100.00;95446.16;5065900;28;20051;-60
2022/11/17 01:24:15;;;;;;;6.03;3.30;;;;;;;6.73;100.00;95452.03;5047737;28;20091;-60
2022/11/17 01:26:43;;;;;;;5.60;3.10;;;;;;;6.83;100.00;95443.13;5048844;28;20032;-60
2022/11/17 01:29:11;;;;;;;7.57;3.13;;;;;;;6.74;100.00;95443.69;5047304;28;20128;-60
2022/11/17 01:31:42;;;;;;;9.32;3.28;;;;;;;6.70;100.00;95447.19;5047853;28;20144;-61
2022/11/17 01:34:09;;;;;;;7.30;2.90;;;;;;;6.78;100.00;95435.88;5047732;28;20128;-60
2022/11/17 01:37:24;;;;;;;5.40;3.10;;;;;;;6.77;100.00;95423.50;5047955;28;20516;-60
2022/11/17 01:39:27;;;;;;;6.28;3.00;;;;;;;6.75;100.00;95434.53;5034209;28;20075;-60
2022/11/17 01:41:54;;;;;;;7.30;3.60;;;;;;;6.78;100.00;95435.06;5029519;28;20417;-61
2022/11/17 01:44:49;;;;;;;11.82;3.33;;;;;;;6.82;100.00;95407.34;5028443;28;20080;-60
2022/11/17 01:47:26;;;;;;;5.95;3.05;;;;;;;6.87;100.00;95409.22;5028784;28;20132;-60
2022/11/17 01:49:57;;;;;;;8.55;2.80;;;;;;;6.95;100.00;95397.88;5048517;28;20455;-60
2022/11/17 01:52:24;;;;;;;6.32;3.33;;;;;;;7.01;100.00;95391.38;5046838;28;20307;-60
2022/11/17 01:54:54;;;;;;;6.15;2.80;;;;;;;7.05;100.00;95375.47;5047160;28;20075;-59
2022/11/17 01:57:26;;;;;;;7.95;3.47;;;;;;;7.10;100.00;95359.28;5047723;28;20068;-60
2022/11/17 02:00:03;;;;;;;6.65;3.08;;;;;;;7.13;100.00;95353.38;5046359;28;20075;-60
2022/11/17 02:02:30;;;;;;;4.35;2.55;;;;;;;7.13;100.00;95342.59;5043304;28;20045;-60
2022/11/17 02:05:11;;;;;;;5.15;2.42;;;;;;;7.13;100.00;95342.59;5028288;28;20909;-60
2022/11/17 02:07:39;;;;;;;5.43;2.92;;;;;;;7.13;100.00;95337.22;5047801;28;20055;-60
2022/11/17 02:10:06;;;;;;;7.60;2.50;;;;;;;7.09;100.00;95341.56;5045595;28;20087;-59
2022/11/17 02:12:35;;;;;;;4.95;2.65;;;;;;;7.12;100.00;95340.97;5043040;28;20485;-61
2022/11/17 02:15:03;;;;;;;4.78;2.35;;;;;;;7.08;100.00;95334.53;5045035;28;20076;-60
2022/11/17 02:17:38;;;;;;;5.47;2.50;;;;;;;7.02;100.00;95325.72;5046766;28;20068;-60
2022/11/17 02:20:19;;;;;;;5.30;2.90;;;;;;;6.95;100.00;95327.09;5034246;28;20041;-60
2022/11/17 02:23:22;;;;;;;5.93;2.80;;;;;;;6.91;100.00;95326.88;5046738;28;20184;-61
2022/11/17 02:26:07;;;;;;;4.90;2.80;;;;;;;6.74;100.00;95322.66;5046779;28;20041;-61
2022/11/17 02:28:37;;;;;;;5.85;2.70;;;;;;;6.53;100.00;95324.66;5046600;28;20102;-60
2022/11/17 02:31:29;;;;;;;4.63;2.50;;;;;;;6.28;100.00;95307.56;5046189;28;20051;-61
2022/11/17 02:34:02;;;;;;;;;;;;;;;6.08;100.00;95306.56;5047868;28;20091;-61
2022/11/17 02:36:41;;;;;;;6.10;2.58;;;;;;;6.03;100.00;95279.72;5038796;28;20403;-61
2022/11/17 02:39:13;;;;;;;6.07;2.55;;;;;;;5.99;100.00;95290.19;5046621;28;20120;-61
2022/11/17 02:41:42;;;;;;;5.40;2.63;;;;;;;5.86;100.00;95294.22;5042719;28;20049;-61
2022/11/17 02:44:16;;;;;;;5.95;2.40;;;;;;;5.82;100.00;95305.81;5033772;28;20041;-60
2022/11/17 02:46:45;;;;;;;6.55;2.63;;;;;;;5.53;100.00;95303.72;5052208;28;20076;-60
2022/11/17 02:49:21;;;;;;;4.95;2.30;;;;;;;5.28;100.00;95286.56;5047408;28;20075;-60
2022/11/17 02:51:51;;;;;;;4.88;2.30;;;;;;;5.33;100.00;95291.91;5033847;28;20076;-61
2022/11/17 02:54:20;;;;;;;5.70;2.80;;;;;;;5.67;100.00;95299.38;5026572;28;20045;-60
2022/11/17 02:56:47;;;;;;;5.68;2.38;;;;;;;6.01;100.00;95302.53;5040522;28;20345;-60
2022/11/17 02:59:18;;;;;;;4.72;2.30;;;;;;;5.80;100.00;95298.03;5046448;28;20098;-61
2022/11/17 03:01:55;;;;;;;;;;;;;;;5.88;100.00;95317.31;5045447;28;20124;-60
2022/11/17 03:04:48;;;;;;;4.75;2.60;;;;;;;6.13;100.00;95318.34;5031578;28;20059;-60
2022/11/17 03:07:52;;;;;;;6.88;2.55;;;;;;;6.31;100.00;95328.53;5046816;28;20128;-60
2022/11/17 03:10:57;;;;;;;7.13;3.05;;;;;;;6.51;100.00;95299.91;5041854;28;20077;-60
2022/11/17 03:13:29;;;;;;;5.38;3.22;;;;;;;6.54;100.00;95303.94;5038123;28;20046;-60
2022/11/17 03:16:09;;;;;;;5.03;3.17;;;;;;;6.54;100.00;95315.50;5059158;28;20037;-60
2022/11/17 03:18:49;;;;;;;3.75;2.60;;;;;;;6.60;100.00;95290.19;5046655;28;20033;-60
2022/11/17 03:21:22;;;;;;;4.90;3.13;;;;;;;6.60;100.00;95281.34;5045410;28;20127;-60
2022/11/17 03:23:52;;;;;;;6.50;3.10;;;;;;;6.58;100.00;95270.03;5045653;28;20048;-60
2022/11/17 03:26:25;;;;;;;10.38;3.67;;;;;;;6.49;100.00;95264.47;5039742;28;20060;-60
2022/11/17 03:28:53;;;;;;;6.05;2.30;;;;;;;6.49;100.00;95254.47;5039964;28;20037;-60
2022/11/17 03:31:21;;;;;;;5.78;2.83;;;;;;;6.48;100.00;95257.44;5040566;28;20068;-60
2022/11/17 03:33:48;;;;;;;4.60;2.70;;;;;;;6.47;100.00;95270.09;5029168;28;20092;-60
2022/11/17 03:36:21;;;;;;;5.80;2.80;;;;;;;6.57;100.00;95271.94;5040188;28;20068;-60
2022/11/17 03:38:56;;;;;;;4.03;2.45;;;;;;;6.66;100.00;95268.66;5046041;28;20477;-60
2022/11/17 03:41:28;;;;;;;5.53;2.75;;;;;;;6.71;100.00;95285.53;5038653;28;20120;-60
2022/11/17 03:43:57;;;;;;;6.60;2.60;;;;;;;6.72;100.00;95268.34;5028120;28;20556;-60
2022/11/17 03:46:25;;;;;;;6.13;3.10;;;;;;;6.75;100.00;95265.09;5040007;28;20072;-60
2022/11/17 03:49:06;;;;;;;8.30;2.83;;;;;;;6.89;100.00;95262.56;5045878;28;20064;-60
2022/11/17 03:51:32;;;;;;;7.88;2.83;;;;;;;6.99;100.00;95256.31;5038435;28;20080;-58
2022/11/17 03:53:59;;;;;;;4.78;2.75;;;;;;;7.09;100.00;95255.44;5028706;28;20072;-60
2022/11/17 03:56:47;;;;;;;6.28;2.35;;;;;;;7.13;100.00;95256.47;5039684;28;20149;-61
2022/11/17 03:59:45;;;;;;;4.75;3.05;;;;;;;7.27;100.00;95261.22;5045680;28;20331;-60
2022/11/17 04:02:20;;;;;;;5.10;2.67;;;;;;;7.30;100.00;95260.66;5034494;28;20599;-60
2022/11/17 04:05:05;;;;;;;4.95;2.85;;;;;;;7.34;100.00;95258.19;5033842;28;20128;-60
2022/11/17 04:07:35;;;;;;;5.63;2.88;;;;;;;7.35;100.00;95247.13;5046196;28;20451;-60
2022/11/17 04:10:04;;;;;;;7.82;2.80;;;;;;;7.36;100.00;95256.00;5042834;28;20451;-60
2022/11/17 04:18:08;;;;;;;6.32;2.60;;;;;;;7.41;100.00;95264.84;5047465;28;20081;-60
2022/11/17 04:20:34;;;;;;;7.03;2.65;;;;;;;7.40;100.00;95265.94;5045834;28;20068;-60
2022/11/17 04:23:05;;;;;;;4.45;2.85;;;;;;;7.40;100.00;95260.53;5055090;28;20048;-59
2022/11/17 04:28:36;;;;;;;4.97;2.65;;;;;;;7.49;100.00;95262.63;5047843;28;20102;-60
2022/11/17 04:31:22;;;;;;;4.68;2.80;;;;;;;7.51;100.00;95263.13;5035895;28;20046;-59
2022/11/17 04:33:51;;;;;;;5.47;2.60;;;;;;;7.51;100.00;95261.25;5049165;28;20049;-61
2022/11/17 04:36:20;;;;;;;4.57;2.63;;;;;;;7.48;100.00;95250.25;5047151;28;20075;-60
2022/11/17 04:38:49;;;;;;;7.20;3.15;;;;;;;7.50;100.00;95251.56;5033844;28;20049;-61
2022/11/17 04:44:04;;;;;;;5.40;2.70;;;;;;;7.48;100.00;95253.72;5048959;28;20575;-61
2022/11/17 04:46:32;;;;;;;5.03;2.90;;;;;;;7.50;100.00;95248.06;5045061;28;20494;-60
2022/11/17 04:49:00;;;;;;;9.35;3.28;;;;;;;7.46;100.00;95247.84;5035189;28;20045;-60
2022/11/17 04:51:28;;;;;;;5.50;3.15;;;;;;;7.47;100.00;95252.13;5032599;28;20319;-60
2022/11/17 04:53:55;;;;;;;6.47;2.85;;;;;;;7.52;100.00;95265.53;5049021;28;20083;-59
2022/11/17 04:56:22;;;;;;;5.15;3.00;;;;;;;7.51;100.00;95260.44;5046859;28;20047;-60
2022/11/17 04:58:49;;;;;;;6.55;3.13;;;;;;;7.55;100.00;95250.69;5028254;28;20488;-61
2022/11/17 05:01:17;;;;;;;7.13;2.80;;;;;;;7.53;100.00;95255.56;5045446;28;20059;-61
2022/11/17 05:03:49;;;;;;;7.03;2.65;;;;;;;7.51;100.00;95266.63;5048509;28;20492;-61
2022/11/17 05:06:18;;;;;;;;;;;;;;;7.51;100.00;95263.94;5042948;28;20072;-61
2022/11/17 05:08:45;;;;;;;5.78;3.17;;;;;;;7.51;100.00;95253.16;5048719;28;19974;-61
2022/11/17 05:13:58;;;;;;;6.53;2.72;;;;;;;7.34;100.00;95248.19;5059119;28;20079;-61
2022/11/17 05:19:17;;;;;;;6.05;3.47;;;;;;;7.20;100.00;95249.94;5041774;28;20049;-61
2022/11/17 05:21:43;;;;;;;6.07;3.10;;;;;;;7.24;100.00;95242.91;5032384;28;20500;-61
2022/11/17 05:24:13;;;;;;;5.15;3.03;;;;;;;7.22;100.00;95250.50;5046275;28;20048;-61
2022/11/17 05:26:41;;;;;;;7.55;3.78;;;;;;;7.13;100.00;95247.59;5048085;28;20079;-61
2022/11/17 05:29:08;;;;;;;8.70;4.10;;;;;;;7.11;100.00;95255.16;5047638;28;20072;-61
2022/11/17 05:31:35;;;;;;;6.03;2.90;;;;;;;7.25;100.00;95261.47;5047478;28;20103;-61
2022/11/17 05:34:03;;;;;;;6.45;2.72;;;;;;;7.28;100.00;95254.72;5047287;28;20132;-61
2022/11/17 05:36:30;;;;;;;5.13;3.25;;;;;;;7.33;100.00;95256.59;5046892;28;20474;-60
2022/11/17 05:38:57;;;;;;;4.60;2.70;;;;;;;7.34;100.00;95263.56;5047440;28;20068;-61
2022/11/17 05:41:24;;;;;;;6.07;2.80;;;;;;;7.40;100.00;95257.03;5033166;28;20068;-61
2022/11/17 05:43:51;;;;;;;5.85;2.90;;;;;;;7.39;100.00;95258.94;5047622;28;20583;-61
2022/11/17 05:46:19;;;;;;;4.85;2.95;;;;;;;7.39;100.00;95253.56;5046291;28;20067;-61
2022/11/17 05:48:48;;;;;;;10.43;3.03;;;;;;;7.45;100.00;95253.50;5048434;28;20363;-61
2022/11/17 05:51:20;;;;;;;7.95;2.70;;;;;;;7.45;100.00;95248.94;5046133;28;20131;-62
2022/11/17 05:53:48;;;;;;;4.85;2.70;;;;;;;7.43;100.00;95253.78;5047420;28;20083;-61
2022/11/17 05:56:29;;;;;;;7.63;2.58;;;;;;;7.49;100.00;95254.53;5046861;28;20513;-62
2022/11/17 05:59:08;;;;;;;6.28;2.72;;;;;;;7.54;100.00;95252.59;5027172;28;20073;-62
2022/11/17 06:01:47;;;;;;;6.72;2.33;;;;;;;7.61;100.00;95256.84;5047017;28;20142;-62
2022/11/17 06:04:17;;;;;;;5.25;2.10;;;;;;;7.60;100.00;95257.94;5040806;28;20521;-62
2022/11/17 06:06:45;;;;;;;5.50;3.03;;;;;;;7.67;100.00;95253.03;5038963;28;20226;-62
2022/11/17 06:09:11;;;;;;;3.88;2.00;;;;;;;7.70;100.00;95244.34;5045058;28;20470;-62
2022/11/17 06:11:38;;;;;;;5.25;2.05;;;;;;;7.73;100.00;95240.28;5037417;28;20509;-62
2022/11/17 06:14:04;;;;;;;5.88;2.30;;;;;;;7.72;100.00;95242.19;5048652;28;20164;-62
2022/11/17 06:16:35;;;;;;;4.13;2.22;;;;;;;7.75;100.00;95243.50;5038268;28;20468;-62
2022/11/17 06:19:10;;;;;;;3.90;1.85;;;;;;;7.75;100.00;95243.50;5043718;28;20124;-62
2022/11/17 06:21:37;;;;;;;4.38;2.10;;;;;;;7.71;100.00;95255.94;5041158;28;20134;-62
2022/11/17 06:24:23;;;;;;;5.13;2.20;;;;;;;7.85;100.00;95253.38;5043005;28;20059;-62
2022/11/17 06:26:50;;;;;;;4.78;1.88;;;;;;;7.81;100.00;95253.94;5043859;28;20052;-62
2022/11/17 06:29:17;;;;;;;6.85;2.47;;;;;;;7.82;100.00;95257.44;5046407;28;20091;-62
2022/11/17 06:31:45;;;;;;;3.75;1.60;;;;;;;7.83;100.00;95260.91;5044063;28;20516;-63
2022/11/17 06:34:11;;;;;;;4.45;2.15;;;;;;;7.84;100.00;95267.91;5044554;28;20098;-59
2022/11/17 06:36:38;;;;;;;3.92;1.73;;;;;;;7.93;100.00;95266.22;5041645;28;20582;-58
2022/11/17 06:39:05;;;;;;;6.60;1.95;;;;;;;7.95;100.00;95280.19;5050790;28;20157;-59
2022/11/17 06:41:31;;;;;;;4.75;2.28;;;;;;;7.97;100.00;95282.59;5036400;28;21312;-60
2022/11/17 06:43:58;;;;;;;3.50;1.63;;;;;;;8.02;100.00;95277.97;5058490;28;20135;-60
2022/11/17 06:46:36;;;;;;;6.68;2.40;;;;;;;7.95;100.00;95272.09;5039857;28;20433;-59
2022/11/17 06:49:05;;;;;;;4.97;2.20;;;;;;;7.97;100.00;95261.84;5039315;28;20335;-60
2022/11/17 06:51:33;;;;;;;5.75;1.95;;;;;;;7.92;100.00;95253.81;5026983;28;20075;-60
2022/11/17 06:53:59;;;;;;;4.20;2.00;;;;;;;7.84;100.00;95241.78;5044441;28;20055;-59
2022/11/17 06:56:27;;;;;;;4.13;1.90;;;;;;;7.81;100.00;95237.78;5044354;28;20055;-60
2022/11/17 06:58:54;;;;;;;4.15;1.95;;;;;;;7.75;100.00;95254.28;5044499;28;20487;-59
2022/11/17 07:01:21;;;;;;;3.83;2.10;;;;;;;7.82;100.00;95260.13;5039028;28;20033;-59
2022/11/17 07:03:47;;;;;;;4.03;2.40;;;;;;;7.96;100.00;95265.63;5044163;28;20060;-59
2022/11/17 07:06:15;;;;;;;3.80;1.80;;;;;;;7.92;100.00;95269.97;5043114;28;20044;-59
2022/11/17 07:08:41;;;;;;;3.88;1.90;;;;;;;7.86;100.00;95274.63;5044179;28;20322;-59
2022/11/17 07:11:10;;;;;;;5.03;2.00;;;;;;;7.91;100.00;95263.81;5031400;28;20103;-59
2022/11/17 07:13:37;;;;;;;3.83;1.65;;;;;;;8.03;100.00;95255.31;5044622;28;20106;-60
2022/11/17 07:16:15;;;;;;;4.78;1.90;;;;;;;7.97;100.00;95267.25;5043252;28;20053;-59
2022/11/17 07:18:48;;;;;;;3.65;1.67;;;;;;;8.01;100.00;95264.75;5044823;28;20041;-60
2022/11/17 07:21:15;;;;;;;6.22;1.90;;;;;;;8.03;100.00;95265.28;5042697;28;20492;-57
2022/11/17 07:23:43;;;;;;;3.35;1.80;;;;;;;8.07;100.00;95269.81;5042366;28;20436;-56
2022/11/17 07:26:10;;;;;;;4.97;1.83;;;;;;;8.14;100.00;95276.75;5042318;28;20044;-57
2022/11/17 07:28:37;;;;;;;3.80;1.60;;;;;;;8.35;100.00;95280.00;5053520;28;20106;-57
2022/11/17 07:31:06;;;;;;;3.95;2.42;;;;;;;8.33;100.00;95284.84;5043967;28;20129;-58
2022/11/17 07:33:33;;;;;;;4.25;2.20;;;;;;;8.34;100.00;95278.41;5043829;28;20094;-59
2022/11/17 07:36:08;;;;;;;4.68;1.48;;;;;;;8.40;100.00;95262.97;5042809;28;20539;-58
2022/11/17 07:38:36;;;;;;;3.00;1.50;;;;;;;8.45;100.00;95277.16;5046547;28;20056;-59
2022/11/17 07:41:04;;;;;;;2.55;1.60;;;;;;;8.53;100.00;95275.75;5032127;28;20065;-58
2022/11/17 07:43:33;;;;;;;1.83;1.25;;;;;;;8.62;100.00;95278.59;5037457;28;20041;-59
2022/11/17 07:46:09;;;;;;;2.45;1.10;;;;;;;8.72;100.00;95266.84;5044551;28;20037;-59
2022/11/17 07:48:35;;;;;;;3.35;2.35;;;;;;;8.77;100.00;95274.09;5043666;28;20041;-60
2022/11/17 07:51:03;;;;;;;2.85;1.42;;;;;;;8.77;100.00;95271.38;5044880;28;20047;-60
2022/11/17 07:53:32;;;;;;;1.88;1.15;;;;;;;8.71;100.00;95266.03;5036208;28;20041;-59
2022/11/17 07:56:03;;;;;;;2.85;1.40;;;;;;;8.76;100.00;95267.88;5029072;28;20033;-60
2022/11/17 07:58:31;;;;;;;4.13;1.48;;;;;;;8.74;100.00;95261.16;5047633;28;20064;-59
2022/11/17 08:00:58;;;;;;;2.78;1.20;;;;;;;8.67;100.00;95265.00;5044381;28;20120;-60
2022/11/17 08:03:24;;;;;;;2.75;1.52;;;;;;;8.66;100.00;95273.44;5044686;28;20041;-60
2022/11/17 08:05:52;;;;;;;4.30;1.40;;;;;;;8.66;100.00;95282.31;5048616;28;20414;-59
2022/11/17 08:08:18;;;;;;;2.90;1.40;;;;;;;8.74;100.00;95278.16;5049742;28;20068;-59
2022/11/17 08:10:45;;;;;;;4.00;1.48;;;;;;;8.81;100.00;95283.19;5039827;28;20029;-59
2022/11/17 08:13:12;;;;;;;3.80;1.33;;;;;;;8.61;100.00;95285.06;5041206;28;20512;-60
2022/11/17 08:15:39;;;;;;;3.05;1.27;;;;;;;8.63;100.00;95272.13;5058508;28;20076;-57
2022/11/17 08:18:09;;;;;;;3.88;1.35;;;;;;;8.65;100.00;95275.31;5046933;28;20044;-60
2022/11/17 08:20:35;;;;;;;2.92;1.48;;;;;;;8.63;100.00;95276.69;5046777;28;20037;-60
2022/11/17 08:23:02;;;;;;;4.68;1.50;;;;;;;8.57;100.00;95267.88;5046580;28;20041;-59
2022/11/17 08:25:28;;;;;;;2.28;1.02;;;;;;;8.32;100.00;95267.09;5037688;28;20048;-60
2022/11/17 08:27:56;;;;;;;2.78;1.20;;;;;;;8.31;100.00;95271.69;5046738;28;20049;-58
2022/11/17 08:30:24;;;;;;;3.90;1.30;;;;;;;8.31;100.00;95270.88;5036063;28;20051;-59
2022/11/17 08:32:52;;;;;;;2.80;1.23;;;;;;;8.30;100.00;95266.59;5039267;28;20071;-60
2022/11/17 08:35:22;;;;;;;3.28;1.30;;;;;;;8.27;100.00;95267.97;5028335;28;20049;-59
2022/11/17 08:37:49;;;;;;;5.18;1.60;;;;;;;8.17;100.00;95266.19;5040808;28;20349;-59
2022/11/17 08:40:19;;;;;;;2.95;1.52;;;;;;;8.34;100.00;95262.22;5040374;28;20437;-57
2022/11/17 08:42:50;;;;;;;5.97;1.50;;;;;;;8.35;100.00;95271.09;5040719;28;20041;-60
2022/11/17 08:45:24;;;;;;;2.67;0.70;;;;;;;8.59;100.00;95271.88;5037969;28;20405;-58
2022/11/17 08:47:52;;;;;;;2.45;1.00;;;;;;;8.78;100.00;95267.59;5041972;28;20189;-57
2022/11/17 08:50:19;;;;;;;2.70;0.60;;;;;;;8.90;100.00;95275.22;5041900;28;20447;-59
2022/11/17 08:52:46;;;;;;;3.25;0.50;;;;;;;9.08;100.00;95274.44;5050659;28;20063;-58
2022/11/17 08:55:13;;;;;;;5.35;0.65;;;;;;;9.21;100.00;95278.25;5043467;28;20439;-59
2022/11/17 08:57:40;;;;;;;2.42;0.73;;;;;;;9.30;99.82;95280.28;5037710;28;20036;-59
2022/11/17 09:00:07;;;;;;;1.98;0.60;;;;;;;9.35;99.03;95281.00;5042323;28;20041;-59
2022/11/17 09:02:34;;;;;;;3.28;0.95;;;;;;;9.43;98.01;95287.63;5049839;28;20060;-59
2022/11/17 09:05:00;;;;;;;3.63;1.10;;;;;;;9.52;97.61;95295.06;5044280;28;20045;-60
2022/11/17 09:07:27;;;;;;;2.67;0.63;;;;;;;9.56;97.65;95302.28;5040779;28;20045;-60
2022/11/17 09:10:00;;;;;;;2.17;1.00;;;;;;;9.61;97.45;95314.88;5037893;28;20048;-60
2022/11/17 09:12:27;;;;;;;3.85;0.93;;;;;;;9.71;96.50;95308.50;5038409;28;20049;-60
2022/11/17 09:14:53;;;;;;;2.65;0.63;;;;;;;9.82;95.78;95307.22;5058637;28;20040;-60
2022/11/17 09:17:20;;;;;;;2.22;0.43;;;;;;;9.86;95.40;95302.03;5053802;28;20053;-60
2022/11/17 09:19:46;;;;;;;2.47;0.68;;;;;;;9.96;94.64;95304.56;5040260;28;20143;-61
2022/11/17 09:22:13;;;;;;;3.60;0.50;;;;;;;9.94;94.88;95309.44;5045423;28;20041;-60
2022/11/17 09:24:39;;;;;;;1.85;0.50;;;;;;;10.06;93.80;95318.97;5043621;28;20124;-59
2022/11/17 09:27:07;;;;;;;10.15;1.00;;;;;;;10.03;93.79;95320.38;5040609;28;20045;-58
2022/11/17 09:29:33;;;;;;;1.55;0.60;;;;;;;10.01;93.86;95315.28;5040508;28;20079;-59
2022/11/17 09:32:00;;;;;;;1.42;0.47;;;;;;;10.07;93.50;95317.88;5047172;28;20528;-57
2022/11/17 09:34:28;;;;;;;2.05;0.70;;;;;;;10.10;92.42;95323.47;5039815;28;20124;-58
2022/11/17 09:36:54;;;;;;;2.42;0.77;;;;;;;10.12;92.16;95318.56;5032416;28;20052;-59
2022/11/17 09:39:21;;;;;;;5.90;1.15;;;;;;;10.12;92.44;95334.00;5044126;28;20562;-59
2022/11/17 09:41:50;;;;;;;3.58;0.60;;;;;;;10.14;91.50;95338.00;5042380;28;20045;-59
2022/11/17 09:44:26;;;;;;;6.47;1.05;;;;;;;10.20;91.52;95338.72;5040609;28;20084;-60
2022/11/17 09:46:52;;;;;;;2.88;1.02;;;;;;;10.22;90.52;95339.22;5044791;28;20044;-59
2022/11/17 09:49:39;;;;;;;3.28;0.80;;;;;;;10.21;90.33;95343.00;5041916;28;20045;-59
2022/11/17 09:52:17;;;;;;;2.72;0.50;;;;;;;10.17;91.54;95347.41;5050853;28;20041;-60
2022/11/17 09:54:52;;;;;;;5.20;1.20;;;;;;;10.14;91.71;95350.72;5048552;28;20098;-60
2022/11/17 09:57:42;;;;;;;2.40;0.43;;;;;;;10.14;90.28;95340.69;5043290;28;20046;-59
2022/11/17 10:00:14;;;;;;;3.35;0.63;;;;;;;10.11;90.16;95343.22;5043145;28;20056;-58
2022/11/17 10:02:41;;;;;;;2.38;0.40;;;;;;;10.16;88.90;95335.00;5051149;28;20056;-58
2022/11/17 10:05:19;;;;;;;2.78;0.50;;;;;;;10.11;90.13;95341.31;5043807;28;20053;-58
2022/11/17 10:07:49;;;;;;;3.50;0.70;;;;;;;10.18;89.09;95346.34;5044816;28;20065;-59
2022/11/17 10:10:29;;;;;;;2.70;1.15;;;;;;;10.25;89.45;95338.59;5042595;28;20598;-60
2022/11/17 10:12:57;;;;;;;3.47;0.60;;;;;;;10.22;88.67;95333.81;5047723;28;20472;-54
2022/11/17 10:15:28;;;;;;;4.13;0.70;;;;;;;10.31;87.52;95341.22;5051724;28;20095;-59
2022/11/17 10:17:55;;;;;;;2.63;0.75;;;;;;;10.37;86.68;95332.72;5044687;28;20099;-58
2022/11/17 10:20:22;;;;;;;5.20;0.88;;;;;;;10.38;86.00;95341.63;5032236;28;20123;-57
2022/11/17 10:22:50;;;;;;;3.38;0.88;;;;;;;10.27;85.89;95351.84;5026423;28;20041;-59
2022/11/17 10:25:35;;;;;;;3.60;0.90;;;;;;;10.17;86.53;95346.63;5040778;28;20449;-60
2022/11/17 10:28:03;;;;;;;2.38;0.50;;;;;;;10.13;86.93;95357.22;5040459;28;20041;-58
2022/11/17 10:30:30;;;;;;;3.50;0.70;;;;;;;10.11;85.86;95351.31;5038989;28;20048;-60
2022/11/17 10:32:59;;;;;;;2.33;1.10;;;;;;;10.13;86.34;95349.91;5039244;28;20055;-60
2022/11/17 10:35:27;;;;;;;6.05;1.10;;;;;;;10.34;85.98;95360.34;5043686;28;21064;-59
2022/11/17 10:38:13;;;;;;;5.35;0.80;;;;;;;10.48;84.91;95363.09;5031795;28;20045;-59
2022/11/17 10:40:40;;;;;;;4.65;0.70;;;;;;;10.75;85.58;95361.47;5039872;28;20472;-59
2022/11/17 10:43:10;;;;;;;4.32;0.88;;;;;;;10.89;84.36;95352.53;5033668;28;20041;-60
2022/11/17 10:45:43;;;;;;;6.18;1.60;;;;;;;10.77;84.33;95361.97;5042651;28;20127;-58
2022/11/17 10:48:45;;;;;;;6.05;0.95;;;;;;;10.70;84.59;95356.16;5041533;28;20041;-60
2022/11/17 10:51:23;;;;;;;3.47;0.93;;;;;;;10.72;84.10;95351.25;5031680;28;20124;-60
2022/11/17 10:54:07;;;;;;;4.53;0.70;;;;;;;10.79;82.85;95362.47;5043474;28;20052;-60
2022/11/17 10:56:40;;;;;;;2.42;0.60;;;;;;;10.82;82.31;95366.47;5045519;28;20482;-61
2022/11/17 10:59:07;;;;;;;3.28;0.80;;;;;;;10.97;83.97;95351.81;5033051;28;20492;-59
2022/11/17 11:01:39;;;;;;;5.68;0.80;;;;;;;10.97;82.42;95327.44;5043111;28;20044;-60
2022/11/17 11:04:26;;;;;;;5.18;0.60;;;;;;;10.95;81.91;95334.25;5043363;28;20139;-59
2022/11/17 11:07:07;;;;;;;3.00;0.90;;;;;;;10.95;80.40;95337.78;5032197;28;20053;-60
2022/11/17 11:09:54;;;;;;;9.27;2.17;;;;;;;11.01;79.71;95330.31;5036050;28;20098;-59
2022/11/17 11:12:47;;;;;;;2.97;0.40;;;;;;;11.02;80.17;95345.50;5025322;28;20057;-59
2022/11/17 11:15:18;;;;;;;2.85;0.68;;;;;;;10.90;81.18;95317.03;5025677;28;20128;-59
2022/11/17 11:17:44;;;;;;;4.30;0.98;;;;;;;10.91;81.29;95318.63;5032410;28;20094;-59
2022/11/17 11:20:14;;;;;;;5.47;0.80;;;;;;;10.90;81.30;95329.75;5041721;28;20045;-58
2022/11/17 11:22:58;;;;;;;2.53;0.60;;;;;;;10.95;82.72;95323.44;5036520;28;20055;-58
2022/11/17 11:25:55;;;;;;;3.58;0.60;;;;;;;10.97;81.73;95335.56;5042130;28;20540;-58
2022/11/17 11:28:52;;;;;;;5.45;1.30;;;;;;;10.90;81.13;95299.97;5035791;28;20481;-58
2022/11/17 11:31:33;;;;;;;4.07;0.70;;;;;;;10.96;81.26;95328.56;5027288;28;20509;-58
2022/11/17 11:34:14;;;;;;;3.50;0.80;;;;;;;10.98;80.74;95322.84;5033152;28;20776;-58
2022/11/17 11:36:52;;;;;;;2.05;0.52;;;;;;;11.00;79.17;95331.44;5042964;28;20507;-57
2022/11/17 11:39:39;;;;;;;2.88;0.50;;;;;;;10.88;79.93;95326.56;5037760;28;20072;-60
2022/11/17 11:42:39;;;;;;;3.28;0.50;;;;;;;10.76;80.61;95330.59;5023485;28;20046;-59
2022/11/17 11:45:11;;;;;;;2.47;0.60;;;;;;;10.77;81.72;95326.75;5043095;28;20099;-59
2022/11/17 11:48:20;;;;;;;2.47;0.73;;;;;;;10.77;82.16;95334.88;5042975;28;20057;-60
2022/11/17 11:50:52;;;;;;;1.58;0.40;;;;;;;10.90;79.14;95327.03;5039703;28;20148;-57
2022/11/17 11:53:40;;;;;;;2.08;0.40;;;;;;;10.90;80.09;95319.72;5024823;28;20231;-59
2022/11/17 11:56:18;;;;;;;2.95;0.50;;;;;;;10.95;81.15;95328.84;5040551;28;20045;-58
2022/11/17 11:59:18;;;;;;;32.92;3.55;;;;;;;11.03;80.30;95328.91;5043778;28;20127;-60
2022/11/17 12:01:55;;;;;;;136.65;14.45;;;;;;;11.04;79.66;95341.38;5036986;28;20081;-59
2022/11/17 12:04:21;;;;;;;55.75;6.63;;;;;;;11.09;79.37;95331.53;5041087;28;20124;-59
2022/11/17 12:06:52;;;;;;;1.35;0.43;;;;;;;11.14;79.85;95326.00;5039039;28;20076;-60
2022/11/17 12:09:30;;;;;;;154.80;22.63;;;;;;;11.05;79.70;95324.00;5042688;28;20044;-56
2022/11/17 12:12:01;;;;;;;105.60;9.20;;;;;;;11.11;78.28;95332.81;5042166;28;20593;-58
2022/11/17 12:14:34;;;;;;;5.97;0.98;;;;;;;11.10;77.06;95328.53;5042604;28;20042;-60
2022/11/17 12:17:03;;;;;;;25.05;3.00;;;;;;;11.18;78.79;95329.69;5032524;28;20052;-60
2022/11/17 12:19:52;;;;;;;69.35;7.10;;;;;;;11.27;75.99;95332.44;5043107;28;20099;-58
2022/11/17 12:22:28;;;;;;;356.63;40.17;;;;;;;11.26;77.87;95322.72;5038276;28;20055;-59